NCAR-RAP Real-Time Weather Data

Output produced by METARs form (25 August 2019  23:03 UTC)
found at http://weather.rap.ucar.edu/surface/
 
KRDU 252251Z 07005KT 10SM BKN075 BKN250 23/16 A3009 RMK AO2 SLP185 T02280156
KRDU 252151Z 06007KT 10SM BKN070 BKN250 24/15 A3010 RMK AO2 SLP189 T02390150
KRDU 252051Z 02005KT 10SM SCT055 OVC070 24/15 A3011 RMK AO2 SLP193 T02390150 55006
KRDU 251951Z 05009KT 10SM SCT055 OVC065 24/14 A3011 RMK AO2 SLP192 T02440139
KRDU 251851Z 05008KT 10SM FEW040 BKN050 OVC065 24/15 A3012 RMK AO2 SLP196 T02440150
KRDU 251751Z 06010G18KT 10SM FEW035 SCT050 OVC065 24/15 A3013 RMK AO2 SLP199 T02390150 10239 20183 58006
KRDU 251651Z 03007KT 10SM FEW030 OVC046 23/16 A3014 RMK AO2 SLP203 T02280156
KRDU 251551Z 04012KT 10SM FEW025 SCT048 BKN060 23/14 A3015 RMK AO2 SLP205 T02280139
KRDU 251451Z 06008KT 10SM FEW012 BKN043 BKN055 22/17 A3015 RMK AO2 SLP205 T02170167 51004
KRDU 251351Z 03009KT 10SM FEW010 OVC036 20/17 A3015 RMK AO2 SLP206 T02000172
KRDU 251251Z VRB05KT 10SM FEW010 BKN033 OVC050 19/17 A3014 RMK AO2 SLP205 T01940172
KRDU 251151Z COR VRB03KT 10SM FEW012 SCT033 OVC050 18/17 A3013 RMK AO2 SLP202 60004 70033 T01830172 10183 20172 53005
KRDU 251051Z 03006KT 10SM SCT032 BKN048 OVC070 18/17 A3013 RMK AO2 SLP199 T01830172
KRDU 250951Z 02006KT 10SM FEW028 OVC048 18/17 A3012 RMK AO2 SLP198 T01780172
KRDU 250851Z 36004KT 10SM FEW028 OVC048 18/17 A3012 RMK AO2 DZE34 SLP196 P0000 60004 T01780167 56014
KRDU 250834Z 03006KT 10SM FEW028 OVC045 17/17 A3012 RMK AO2 DZE34 P0000 T01720167
KRDU 250751Z 02004KT 7SM -DZ SCT017 BKN028 OVC045 17/17 A3012 RMK AO2 RAE36DZB51 SLP198 P0001 T01720167
KRDU 250719Z 04003KT 7SM -RA SCT017 BKN028 OVC045 17/17 A3013 RMK AO2 P0001 T01720167
KRDU 250651Z 34003KT 5SM -RA BR SCT017 BKN030 OVC047 17/16 A3014 RMK AO2 DZE25RAB25 SLP203 P0003 T01720161
KRDU 250551Z 03005KT 10SM -DZ OVC039 18/16 A3016 RMK AO2 DZB08 SLP209 P0000 60000 T01780161 10183 20172 58004
KRDU 250451Z 04004KT 8SM OVC039 18/16 A3018 RMK AO2 SLP215 T01780156 402220178
KRDU 250351Z 01004KT 10SM OVC039 18/17 A3017 RMK AO2 SLP213 T01830167
KRDU 250251Z 00000KT 10SM OVC037 18/17 A3017 RMK AO2 SLP214 T01830167 51009
KRDU 250151Z 03003KT 10SM OVC037 18/16 A3017 RMK AO2 SLP212 T01780161